Latest Coastal Weather Observations for Double Island Point

IDQ60701

Issued at 12:52 am EST Monday 10 August 2020 (issued every 10 minutes, with the page automatically refreshed every 10 minutes)

About coastal observations | Map of coastal stations | Coastal observations for QLD | Marine services | Other Formats
Station Details ID: 040068 Name: DOUBLE ISLAND POINT LIGHTHOUSE Lat: -25.93 Lon: 153.19 Height: 95.64 m
Data from the previous 72 hours. | See also: Recent months at Double Island Point
Date/Time
EST
Wind Sea
Height
m
Swell Vis
km
Cloud Weather Temp
°C
Press
hPa
Rain since
9am
mm
Dir  Spd
kts
Gust
kts
Height
m
Period
s
Dir
10/12:30am W 4 10 - - - - - - - 14.2 1013.6 0.0
10/12:00am WSW 7 11 - - - - - - - 14.3 1013.8 0.0
 
Date/Time
EST
Wind Sea
Height
m
Swell Vis
km
Cloud Weather Temp
°C
Press
hPa
Rain since
9am
mm
Dir  Spd
kts
Gust
kts
Height
m
Period
s
Dir
09/11:30pm WSW 8 13 - - - - - - - 14.9 1013.8 0.0
09/11:00pm WSW 10 15 - - - - - - - 15.0 1014.0 0.0
09/10:30pm WSW 12 16 - - - - - - - 14.7 1014.1 0.0
09/10:00pm SW 14 20 - - - - - - - 15.0 1014.2 0.0
09/09:30pm WSW 11 19 - - - - - - - 15.5 1014.3 0.0
09/09:00pm WSW 13 19 - - - - - - - 16.0 1014.2 0.0
09/08:30pm WSW 14 19 - - - - - - - 16.1 1014.1 0.0
09/08:00pm WSW 11 17 - - - - - - - 16.1 1014.1 0.0
09/07:30pm WSW 12 18 - - - - - - - 16.4 1013.9 0.0
09/07:00pm W 13 18 - - - - - - - 16.5 1013.3 0.0
09/06:30pm W 11 16 - - - - - - - 16.6 1013.0 0.0
09/06:00pm W 8 11 - - - - - - - 16.7 1012.7 0.0
09/05:30pm ESE 4 5 - - - - - - - 17.1 1012.3 0.0
09/05:00pm CALM 0 0 - - - - - - - 17.6 1012.1 0.0
09/04:30pm ESE 5 7 - - - - - - - 17.0 1011.8 0.0
09/04:00pm SE 9 11 - - - - - - - 17.2 1011.5 0.0
09/03:30pm ESE 10 13 - - - - - - - 17.1 1011.5 0.0
09/03:00pm SE 10 14 - - - - - - - 17.5 1011.5 0.0
09/02:30pm WSW 11 17 - - - - - - - 18.9 1011.4 0.0
09/02:00pm NNW 4 7 - - - - - - - 21.4 1011.6 0.0
09/01:30pm NNW 5 8 - - - - - - - 21.1 1011.9 0.0
09/01:00pm NW 8 13 - - - - - - - 19.6 1012.1 0.0
09/12:30pm WNW 7 12 - - - - - - - 19.2 1012.6 0.0
09/12:00pm NNW 5 7 - - - - - - - 19.4 1013.1 0.0
09/11:30am WNW 7 11 - - - - - - - 17.6 1013.8 0.0
09/11:00am WNW 8 12 - - - - - - - 17.4 1014.2 0.0
09/10:30am W 9 13 - - - - - - - 16.6 1014.6 0.0
09/10:00am WSW 6 11 - - - - - - - 16.3 1015.1 0.0
09/09:30am S 5 7 - - - - - - - 16.0 1015.2 0.0
09/09:00am S 7 11 - - - - - - - 15.0 1015.1 1.6
09/08:30am S 9 12 - - - - - - - 14.7 1015.2 1.6
09/08:00am S 9 11 - - - - - - - 14.1 1015.0 1.6
09/07:30am S 9 13 - - - - - - - 13.8 1014.8 1.6
09/07:00am SW 13 18 - - - - - - - 13.6 1014.4 1.6
09/06:30am SW 11 15 - - - - - - - 13.9 1014.0 1.6
09/06:00am S 4 7 - - - - - - - 14.5 1013.6 1.6
09/05:30am SSW 5 7 - - - - - - - 14.6 1013.3 1.6
09/05:00am SSW 5 7 - - - - - - - 14.8 1012.9 1.6
09/04:30am S 2 5 - - - - - - - 15.0 1012.7 1.6
09/04:00am S 5 7 - - - - - - - 15.2 1012.5 1.6
09/03:30am S 7 9 - - - - - - - 15.2 1012.6 1.6
09/03:00am SW 9 13 - - - - - - - 16.0 1012.6 1.6
09/02:30am SW 11 17 - - - - - - - 16.4 1012.7 1.6
09/02:00am WSW 12 17 - - - - - - - 16.1 1012.5 1.6
09/01:30am SW 13 17 - - - - - - - 15.8 1012.5 1.6
09/01:00am SW 11 15 - - - - - - - 16.1 1012.6 1.6
09/12:30am SSW 8 11 - - - - - - - 15.8 1012.8 1.6
09/12:00am SW 12 15 - - - - - - - 16.2 1012.9 1.6
 
Date/Time
EST
Wind Sea
Height
m
Swell Vis
km
Cloud Weather Temp
°C
Press
hPa
Rain since
9am
mm
Dir  Spd
kts
Gust
kts
Height
m
Period
s
Dir
08/11:30pm S 12 15 - - - - - - - 16.6 1013.1 1.6
08/11:00pm SSE 5 7 - - - - - - - 17.4 1013.5 1.6
08/10:30pm S 7 11 - - - - - - - 17.5 1013.5 1.6
08/10:00pm WSW 11 14 - - - - - - - 17.9 1013.3 1.6
08/09:30pm SW 9 15 - - - - - - - 17.9 1013.2 1.6
08/09:00pm WNW 9 14 - - - - - - - 18.9 1012.9 1.6
08/08:30pm WNW 11 13 - - - - - - - 19.2 1013.0 1.6
08/08:00pm WNW 10 12 - - - - - - - 19.2 1013.0 1.6
08/07:30pm NW 9 12 - - - - - - - 19.4 1012.8 1.6
08/07:00pm NNW 9 12 - - - - - - - 19.8 1012.6 1.6
08/06:30pm NNW 10 13 - - - - - - - 20.0 1012.5 1.4
08/06:00pm N 7 12 - - - - - - Recent precip. 20.0 1012.3 1.4
08/05:30pm N 1 4 - - - - - - - 20.4 1012.0 0.2
08/05:00pm N 3 5 - - - - - - - 20.5 1011.6 0.2
08/04:30pm N 2 4 - - - - - - - 21.3 1011.5 0.2
08/04:00pm NNW 2 3 - - - - - - - 22.4 1011.5 0.2
08/03:30pm NNW 3 5 - - - - - - - 22.9 1011.4 0.2
08/03:00pm NNW 5 7 - - - - - - - 22.4 1011.5 0.2
08/02:30pm NNW 7 9 - - - - - - - 23.0 1011.7 0.2
08/02:00pm NNW 5 8 - - - - - - - 22.0 1012.0 0.2
08/01:30pm NW 7 9 - - - - - - - 21.2 1012.0 0.2
08/01:00pm WNW 10 12 - - - - - - - 19.7 1012.6 0.2
08/12:30pm NW 11 14 - - - - - - - 19.6 1013.0 0.0
08/12:00pm NW 10 14 - - - - - - - 20.1 1013.3 0.0
08/11:30am NW 8 11 - - - - - - - 19.9 1013.9 0.0
08/11:00am NW 7 9 - - - - - - - 19.7 1014.1 0.0
08/10:30am NW 5 8 - - - - - - - 20.0 1014.4 0.0
08/10:00am NW 6 9 - - - - - - - 19.2 1015.0 0.0
08/09:30am WNW 4 7 - - - - - - - 19.3 1015.2 0.0
08/09:00am WNW 5 7 - - - - - - - 18.5 1015.3 11.4
08/08:30am NW 9 10 - - - - - - - 18.4 1015.3 11.4
08/08:00am WNW 6 7 - - - - - - - 18.3 1014.9 11.4
08/07:30am W 5 6 - - - - - - - 17.8 1014.7 11.4
08/07:00am W 8 10 - - - - - - - 17.6 1014.5 11.4
08/06:30am NNW 9 10 - - - - - - - 17.9 1014.5 11.4
08/06:00am NE 5 7 - - - - - - - 18.0 1014.0 11.4
08/05:30am NE 2 6 - - - - - - - 18.0 1014.1 11.4
08/05:00am NE 1 4 - - - - - - - 17.9 1013.5 11.4
08/04:30am NE 2 4 - - - - - - - 17.9 1013.1 11.4
08/04:00am NE 5 6 - - - - - - - 17.8 1013.0 11.4
08/03:30am NE 3 4 - - - - - - - 18.0 1013.0 11.4
08/03:00am NE 3 4 - - - - - - Recent precip. 17.8 1013.2 11.4
08/02:30am NE 1 4 - - - - - - - 17.9 1013.2 11.4
08/02:00am NE 1 4 - - - - - - - 18.1 1013.7 11.2
08/01:30am ENE 3 7 - - - - - - - 18.1 1013.9 11.2
08/01:00am E 4 5 - - - - - - - 17.9 1014.1 11.2
08/12:30am ESE 5 7 - - - - - - - 18.0 1014.2 11.2
08/12:00am CALM 0 0 - - - - - - - 17.8 1014.7 11.2
 
Date/Time
EST
Wind Sea
Height
m
Swell Vis
km
Cloud Weather Temp
°C
Press
hPa
Rain since
9am
mm
Dir  Spd
kts
Gust
kts
Height
m
Period
s
Dir
07/11:30pm CALM 0 0 - - - - - - - 17.5 1015.2 11.2
07/11:00pm ESE 1 5 - - - - - - - 17.4 1015.7 11.2
07/10:30pm SE 6 8 - - - - - - - 17.5 1015.5 11.2
07/10:00pm SSE 6 8 - - - - - - - 17.5 1015.6 11.2
07/09:30pm SSE 8 10 - - - - - - - 17.3 1015.9 10.4
07/09:00pm S 9 12 - - - - - - Rain 17.3 1016.0 10.4
07/08:30pm SSE 6 8 - - - - - - - 17.4 1016.0 10.0
07/08:00pm S 12 15 - - - - - - - 17.3 1015.6 9.8
07/07:30pm S 15 18 - - - - - - - 17.4 1015.6 9.6
07/07:00pm S 12 15 - - - - - - - 17.4 1015.8 8.8
07/06:30pm S 9 11 - - - - - - - 17.3 1015.1 8.8
07/06:00pm SW 8 11 - - - - - - Rain 17.3 1015.1 8.4
07/05:30pm W 9 13 - - - - - - - 17.4 1014.5 8.2
07/05:00pm WNW 12 16 - - - - - - - 17.6 1014.0 6.8
07/04:30pm NW 13 19 - - - - - - - 17.9 1014.0 6.4
07/04:04pm NNW 9 23 - - - - - - - 18.4 1013.7 2.6
07/04:00pm NNW 7 23 - - - - - - - 18.4 1013.0 2.6
07/03:39pm N 17 31 - - - - - - - 18.9 1011.2 2.0
07/03:30pm NNE 24 31 - - - - - - - 19.3 1011.6 0.4
07/03:00pm NNE 27 30 - - - - - - - 19.0 1011.2 0.2
07/02:30pm NNE 27 31 - - - - - - - 19.3 1012.2 0.2
07/02:00pm NNE 24 31 - - - - - - - 19.8 1012.5 0.2
07/01:30pm NNE 21 26 - - - - - - - 20.4 1012.8 0.2
07/01:00pm NNE 17 27 - - - - - - - 20.2 1013.5 0.2
07/12:30pm N 12 23 - - - - - - - 20.0 1014.5 0.2
07/12:11pm NNE 15 25 - - - - - - - 20.1 1014.7 0.2
07/12:00pm N 16 26 - - - - - - Rain 20.3 1015.2 0.2
07/11:38am NNW 12 26 - - - - - - - 20.4 1015.8 0.0
07/11:30am NNW 8 19 - - - - - - - 20.5 1016.2 0.0
07/11:00am N 5 13 - - - - - - - 20.5 1016.5 0.0
07/10:30am SW 4 12 - - - - - - - 20.1 1016.8 0.0
07/10:01am N 15 27 - - - - - - - 20.2 1017.0 0.0
07/10:00am N 14 27 - - - - - - - 20.3 1017.0 0.0
07/09:30am N 9 21 - - - - - - - 19.7 1017.3 0.0
07/09:00am NNE 14 20 - - - - - - - 20.0 1017.4 0.2
07/08:30am NE 11 17 - - - - - - - 19.0 1017.5 0.2
07/08:00am NE 13 18 - - - - - - - 19.6 1017.3 0.2
07/07:30am NE 15 19 - - - - - - - 20.2 1017.7 0.2
07/07:00am NE 11 15 - - - - - - - 19.9 1017.4 0.2
07/06:30am NE 10 16 - - - - - - - 19.8 1017.5 0.2
07/06:00am NE 11 16 - - - - - - - 19.7 1017.5 0.2
07/05:30am NNE 13 19 - - - - - - - 19.9 1017.2 0.2
07/05:00am NE 12 17 - - - - - - - 19.6 1016.9 0.2
07/04:30am NE 12 19 - - - - - - - 19.5 1016.6 0.2
07/04:00am NE 13 19 - - - - - - - 19.5 1016.5 0.2
07/03:30am NE 12 17 - - - - - - - 19.3 1016.5 0.2
07/03:00am NNE 13 18 - - - - - - - 19.7 1016.5 0.2
07/02:30am NNE 17 21 - - - - - - - 19.8 1016.5 0.2
07/02:00am NNE 17 21 - - - - - - - 19.8 1016.9 0.2
07/01:30am NNE 17 21 - - - - - - - 19.7 1016.9 0.2
07/01:00am NNE 15 18 - - - - - - - 19.6 1017.2 0.2

Other formats

Comma delimited format used in spreadsheet applications
http://www.bom.gov.au/fwo/IDQ60701/IDQ60701.94584.axf

JavaScript Object Notation format (JSON) in row-major order
http://www.bom.gov.au/fwo/IDQ60701/IDQ60701.94584.json

Data quality

Most of these data are generated automatically and are frequently updated. Quality checks on data are not normally performed. It is possible for incorrect values to appear. Refer to information at About Latest Weather Observations and please check the disclaimer before using these data.